sensor_id;sensor_type;location;lat;lon;timestamp;P1;durP1;ratioP1;P2;durP2;ratioP2
75012;SDS011;63567;49.956;20.130;2024-03-17T00:02:02;11.57;;;8.07;;
75012;SDS011;63567;49.956;20.130;2024-03-17T00:04:28;11.18;;;8.77;;
75012;SDS011;63567;49.956;20.130;2024-03-17T00:06:53;10.23;;;8.27;;
75012;SDS011;63567;49.956;20.130;2024-03-17T00:09:19;10.15;;;7.85;;
75012;SDS011;63567;49.956;20.130;2024-03-17T00:11:45;10.35;;;7.53;;
75012;SDS011;63567;49.956;20.130;2024-03-17T00:14:10;9.90;;;7.37;;
75012;SDS011;63567;49.956;20.130;2024-03-17T00:16:36;10.35;;;7.57;;
75012;SDS011;63567;49.956;20.130;2024-03-17T00:19:01;9.35;;;7.53;;
75012;SDS011;63567;49.956;20.130;2024-03-17T00:21:27;11.03;;;7.27;;
75012;SDS011;63567;49.956;20.130;2024-03-17T00:23:52;11.77;;;7.93;;
75012;SDS011;63567;49.956;20.130;2024-03-17T00:26:18;9.63;;;7.75;;
75012;SDS011;63567;49.956;20.130;2024-03-17T00:28:44;11.02;;;7.15;;
75012;SDS011;63567;49.956;20.130;2024-03-17T00:31:12;11.02;;;7.47;;
75012;SDS011;63567;49.956;20.130;2024-03-17T00:33:37;10.90;;;7.83;;
75012;SDS011;63567;49.956;20.130;2024-03-17T00:36:02;10.63;;;8.40;;
75012;SDS011;63567;49.956;20.130;2024-03-17T00:38:27;12.32;;;8.63;;
75012;SDS011;63567;49.956;20.130;2024-03-17T00:40:54;11.32;;;7.30;;
75012;SDS011;63567;49.956;20.130;2024-03-17T00:43:19;11.10;;;7.80;;
75012;SDS011;63567;49.956;20.130;2024-03-17T00:45:51;11.73;;;8.10;;
75012;SDS011;63567;49.956;20.130;2024-03-17T00:48:16;11.52;;;9.07;;
75012;SDS011;63567;49.956;20.130;2024-03-17T00:50:42;10.43;;;7.70;;
75012;SDS011;63567;49.956;20.130;2024-03-17T00:53:09;11.90;;;8.25;;
75012;SDS011;63567;49.956;20.130;2024-03-17T00:55:35;12.82;;;7.90;;
75012;SDS011;63567;49.956;20.130;2024-03-17T00:58:00;10.90;;;7.40;;
75012;SDS011;63567;49.956;20.130;2024-03-17T01:00:25;10.37;;;6.83;;
75012;SDS011;63567;49.956;20.130;2024-03-17T01:02:51;10.50;;;7.00;;
75012;SDS011;63567;49.956;20.130;2024-03-17T01:05:16;8.90;;;6.53;;
75012;SDS011;63567;49.956;20.130;2024-03-17T01:07:41;8.27;;;6.07;;
75012;SDS011;63567;49.956;20.130;2024-03-17T01:10:07;8.05;;;5.25;;
75012;SDS011;63567;49.956;20.130;2024-03-17T01:12:33;6.38;;;4.28;;
75012;SDS011;63567;49.956;20.130;2024-03-17T01:14:59;6.00;;;3.63;;
75012;SDS011;63567;49.956;20.130;2024-03-17T01:17:24;4.57;;;2.80;;
75012;SDS011;63567;49.956;20.130;2024-03-17T01:19:49;4.90;;;2.80;;
75012;SDS011;63567;49.956;20.130;2024-03-17T01:22:16;4.10;;;2.40;;
75012;SDS011;63567;49.956;20.130;2024-03-17T01:24:42;3.50;;;1.80;;
75012;SDS011;63567;49.956;20.130;2024-03-17T01:27:11;3.30;;;2.13;;
75012;SDS011;63567;49.956;20.130;2024-03-17T01:29:39;2.92;;;1.55;;
75012;SDS011;63567;49.956;20.130;2024-03-17T01:32:04;2.90;;;1.25;;
75012;SDS011;63567;49.956;20.130;2024-03-17T01:34:31;2.90;;;1.27;;
75012;SDS011;63567;49.956;20.130;2024-03-17T01:36:56;3.22;;;1.70;;
75012;SDS011;63567;49.956;20.130;2024-03-17T01:39:21;2.60;;;1.63;;
75012;SDS011;63567;49.956;20.130;2024-03-17T01:41:47;3.30;;;2.00;;
75012;SDS011;63567;49.956;20.130;2024-03-17T01:44:21;3.40;;;2.00;;
75012;SDS011;63567;49.956;20.130;2024-03-17T01:46:49;3.97;;;2.40;;
75012;SDS011;63567;49.956;20.130;2024-03-17T01:49:15;3.40;;;2.25;;
75012;SDS011;63567;49.956;20.130;2024-03-17T01:51:41;3.75;;;2.03;;
75012;SDS011;63567;49.956;20.130;2024-03-17T01:54:06;3.03;;;1.73;;
75012;SDS011;63567;49.956;20.130;2024-03-17T01:56:32;2.83;;;1.75;;
75012;SDS011;63567;49.956;20.130;2024-03-17T01:58:58;3.08;;;1.48;;
75012;SDS011;63567;49.956;20.130;2024-03-17T02:01:24;3.72;;;1.60;;
75012;SDS011;63567;49.956;20.130;2024-03-17T02:03:49;3.07;;;1.60;;
75012;SDS011;63567;49.956;20.130;2024-03-17T02:06:14;4.27;;;1.53;;
75012;SDS011;63567;49.956;20.130;2024-03-17T02:08:46;2.90;;;1.50;;
75012;SDS011;63567;49.956;20.130;2024-03-17T02:11:23;3.20;;;1.63;;
75012;SDS011;63567;49.956;20.130;2024-03-17T02:13:50;2.75;;;1.70;;
75012;SDS011;63567;49.956;20.130;2024-03-17T02:16:16;4.38;;;1.88;;
75012;SDS011;63567;49.956;20.130;2024-03-17T02:18:42;3.35;;;2.08;;
75012;SDS011;63567;49.956;20.130;2024-03-17T02:21:07;4.17;;;2.10;;
75012;SDS011;63567;49.956;20.130;2024-03-17T02:23:34;4.82;;;2.10;;
75012;SDS011;63567;49.956;20.130;2024-03-17T02:25:59;4.93;;;2.57;;
75012;SDS011;63567;49.956;20.130;2024-03-17T02:28:24;5.47;;;2.80;;
75012;SDS011;63567;49.956;20.130;2024-03-17T02:30:50;4.47;;;2.47;;
75012;SDS011;63567;49.956;20.130;2024-03-17T02:33:15;5.50;;;2.83;;
75012;SDS011;63567;49.956;20.130;2024-03-17T02:35:40;6.00;;;3.27;;
75012;SDS011;63567;49.956;20.130;2024-03-17T02:38:06;5.53;;;3.30;;
75012;SDS011;63567;49.956;20.130;2024-03-17T02:40:32;5.45;;;3.17;;
75012;SDS011;63567;49.956;20.130;2024-03-17T02:42:58;4.57;;;2.92;;
75012;SDS011;63567;49.956;20.130;2024-03-17T02:45:24;6.18;;;3.55;;
75012;SDS011;63567;49.956;20.130;2024-03-17T02:47:49;5.45;;;3.58;;
75012;SDS011;63567;49.956;20.130;2024-03-17T02:50:15;6.13;;;2.90;;
75012;SDS011;63567;49.956;20.130;2024-03-17T02:52:40;6.32;;;3.47;;
75012;SDS011;63567;49.956;20.130;2024-03-17T02:55:06;6.27;;;3.10;;
75012;SDS011;63567;49.956;20.130;2024-03-17T02:57:31;5.68;;;2.85;;
75012;SDS011;63567;49.956;20.130;2024-03-17T02:59:57;6.13;;;2.55;;
75012;SDS011;63567;49.956;20.130;2024-03-17T03:02:23;4.20;;;2.38;;
75012;SDS011;63567;49.956;20.130;2024-03-17T03:04:48;5.27;;;2.50;;
75012;SDS011;63567;49.956;20.130;2024-03-17T03:07:13;5.20;;;2.53;;
75012;SDS011;63567;49.956;20.130;2024-03-17T03:09:39;5.97;;;2.20;;
75012;SDS011;63567;49.956;20.130;2024-03-17T03:12:04;4.18;;;2.10;;
75012;SDS011;63567;49.956;20.130;2024-03-17T03:14:31;6.80;;;2.60;;
75012;SDS011;63567;49.956;20.130;2024-03-17T03:16:57;5.60;;;1.67;;
75012;SDS011;63567;49.956;20.130;2024-03-17T03:19:23;5.43;;;1.80;;
75012;SDS011;63567;49.956;20.130;2024-03-17T03:21:49;7.15;;;1.90;;
75012;SDS011;63567;49.956;20.130;2024-03-17T03:24:14;4.20;;;1.97;;
75012;SDS011;63567;49.956;20.130;2024-03-17T03:26:39;5.73;;;2.27;;
75012;SDS011;63567;49.956;20.130;2024-03-17T03:29:05;3.83;;;1.60;;
75012;SDS011;63567;49.956;20.130;2024-03-17T03:31:33;3.92;;;1.50;;
75012;SDS011;63567;49.956;20.130;2024-03-17T03:34:02;5.03;;;1.38;;
75012;SDS011;63567;49.956;20.130;2024-03-17T03:36:28;4.15;;;2.03;;
75012;SDS011;63567;49.956;20.130;2024-03-17T03:38:53;5.75;;;1.80;;
75012;SDS011;63567;49.956;20.130;2024-03-17T03:41:19;4.95;;;1.85;;
75012;SDS011;63567;49.956;20.130;2024-03-17T03:43:44;4.45;;;1.80;;
75012;SDS011;63567;49.956;20.130;2024-03-17T03:46:12;5.50;;;2.28;;
75012;SDS011;63567;49.956;20.130;2024-03-17T03:48:37;4.93;;;2.83;;
75012;SDS011;63567;49.956;20.130;2024-03-17T03:51:03;6.37;;;3.13;;
75012;SDS011;63567;49.956;20.130;2024-03-17T03:53:30;7.25;;;3.80;;
75012;SDS011;63567;49.956;20.130;2024-03-17T03:55:55;6.55;;;4.15;;
75012;SDS011;63567;49.956;20.130;2024-03-17T03:58:21;6.10;;;3.40;;
75012;SDS011;63567;49.956;20.130;2024-03-17T04:00:46;8.53;;;4.33;;
75012;SDS011;63567;49.956;20.130;2024-03-17T04:03:11;7.07;;;4.20;;
75012;SDS011;63567;49.956;20.130;2024-03-17T04:05:37;7.50;;;3.27;;
75012;SDS011;63567;49.956;20.130;2024-03-17T04:08:02;7.57;;;3.97;;
75012;SDS011;63567;49.956;20.130;2024-03-17T04:10:27;9.50;;;4.18;;
75012;SDS011;63567;49.956;20.130;2024-03-17T04:12:53;8.90;;;4.90;;
75012;SDS011;63567;49.956;20.130;2024-03-17T04:15:18;10.60;;;5.15;;
75012;SDS011;63567;49.956;20.130;2024-03-17T04:17:44;10.60;;;5.88;;
75012;SDS011;63567;49.956;20.130;2024-03-17T04:20:09;10.10;;;5.80;;
75012;SDS011;63567;49.956;20.130;2024-03-17T04:22:38;9.15;;;5.70;;
75012;SDS011;63567;49.956;20.130;2024-03-17T04:25:04;11.40;;;6.40;;
75012;SDS011;63567;49.956;20.130;2024-03-17T04:27:30;11.32;;;6.25;;
75012;SDS011;63567;49.956;20.130;2024-03-17T04:29:59;12.93;;;6.80;;
75012;SDS011;63567;49.956;20.130;2024-03-17T04:32:25;12.07;;;6.15;;
75012;SDS011;63567;49.956;20.130;2024-03-17T04:34:53;10.77;;;6.90;;
75012;SDS011;63567;49.956;20.130;2024-03-17T04:37:19;10.05;;;6.65;;
75012;SDS011;63567;49.956;20.130;2024-03-17T04:39:45;10.63;;;6.05;;
75012;SDS011;63567;49.956;20.130;2024-03-17T04:42:12;12.57;;;6.20;;
75012;SDS011;63567;49.956;20.130;2024-03-17T04:44:39;11.10;;;5.88;;
75012;SDS011;63567;49.956;20.130;2024-03-17T04:47:05;11.70;;;6.70;;
75012;SDS011;63567;49.956;20.130;2024-03-17T04:49:32;11.55;;;6.03;;
75012;SDS011;63567;49.956;20.130;2024-03-17T04:52:01;12.85;;;7.00;;
75012;SDS011;63567;49.956;20.130;2024-03-17T04:54:26;10.97;;;6.37;;
75012;SDS011;63567;49.956;20.130;2024-03-17T04:56:51;10.87;;;6.07;;
75012;SDS011;63567;49.956;20.130;2024-03-17T04:59:17;11.30;;;6.60;;
75012;SDS011;63567;49.956;20.130;2024-03-17T05:01:42;9.47;;;5.87;;
75012;SDS011;63567;49.956;20.130;2024-03-17T05:04:07;10.07;;;6.30;;
75012;SDS011;63567;49.956;20.130;2024-03-17T05:06:32;9.03;;;5.27;;
75012;SDS011;63567;49.956;20.130;2024-03-17T05:08:57;10.13;;;5.40;;
75012;SDS011;63567;49.956;20.130;2024-03-17T05:11:23;10.83;;;5.77;;
75012;SDS011;63567;49.956;20.130;2024-03-17T05:13:49;10.75;;;5.60;;
75012;SDS011;63567;49.956;20.130;2024-03-17T05:16:14;9.45;;;5.50;;
75012;SDS011;63567;49.956;20.130;2024-03-17T05:18:40;10.95;;;5.45;;
75012;SDS011;63567;49.956;20.130;2024-03-17T05:21:06;10.70;;;5.13;;
75012;SDS011;63567;49.956;20.130;2024-03-17T05:23:34;9.43;;;4.65;;
75012;SDS011;63567;49.956;20.130;2024-03-17T05:26:01;8.32;;;4.18;;
75012;SDS011;63567;49.956;20.130;2024-03-17T05:28:29;7.65;;;3.30;;
75012;SDS011;63567;49.956;20.130;2024-03-17T05:30:55;7.07;;;3.17;;
75012;SDS011;63567;49.956;20.130;2024-03-17T05:33:21;5.97;;;2.47;;
75012;SDS011;63567;49.956;20.130;2024-03-17T05:35:48;6.45;;;2.95;;
75012;SDS011;63567;49.956;20.130;2024-03-17T05:38:15;7.97;;;3.00;;
75012;SDS011;63567;49.956;20.130;2024-03-17T05:40:40;7.23;;;3.60;;
75012;SDS011;63567;49.956;20.130;2024-03-17T05:43:06;7.70;;;3.90;;
75012;SDS011;63567;49.956;20.130;2024-03-17T05:45:32;5.95;;;3.13;;
75012;SDS011;63567;49.956;20.130;2024-03-17T05:47:57;7.88;;;2.83;;
75012;SDS011;63567;49.956;20.130;2024-03-17T05:50:23;4.80;;;2.35;;
75012;SDS011;63567;49.956;20.130;2024-03-17T05:52:48;6.20;;;2.10;;
75012;SDS011;63567;49.956;20.130;2024-03-17T05:55:13;5.47;;;2.20;;
75012;SDS011;63567;49.956;20.130;2024-03-17T05:57:38;6.67;;;2.57;;
75012;SDS011;63567;49.956;20.130;2024-03-17T06:00:04;6.67;;;2.27;;
75012;SDS011;63567;49.956;20.130;2024-03-17T06:02:29;6.93;;;2.60;;
75012;SDS011;63567;49.956;20.130;2024-03-17T06:04:55;6.10;;;2.23;;
75012;SDS011;63567;49.956;20.130;2024-03-17T06:07:20;8.37;;;2.43;;
75012;SDS011;63567;49.956;20.130;2024-03-17T06:09:45;6.23;;;2.33;;
75012;SDS011;63567;49.956;20.130;2024-03-17T06:12:12;5.95;;;2.67;;
75012;SDS011;63567;49.956;20.130;2024-03-17T06:14:37;9.37;;;2.60;;
75012;SDS011;63567;49.956;20.130;2024-03-17T06:17:03;5.57;;;2.37;;
75012;SDS011;63567;49.956;20.130;2024-03-17T06:19:30;7.32;;;2.28;;
75012;SDS011;63567;49.956;20.130;2024-03-17T06:21:55;4.97;;;2.25;;
75012;SDS011;63567;49.956;20.130;2024-03-17T06:24:21;4.97;;;1.95;;
75012;SDS011;63567;49.956;20.130;2024-03-17T06:26:46;6.77;;;2.37;;
75012;SDS011;63567;49.956;20.130;2024-03-17T06:29:13;6.60;;;1.90;;
75012;SDS011;63567;49.956;20.130;2024-03-17T06:31:40;5.10;;;2.05;;
75012;SDS011;63567;49.956;20.130;2024-03-17T06:34:05;5.87;;;1.53;;
75012;SDS011;63567;49.956;20.130;2024-03-17T06:36:30;6.47;;;1.60;;
75012;SDS011;63567;49.956;20.130;2024-03-17T06:38:56;4.40;;;1.70;;
75012;SDS011;63567;49.956;20.130;2024-03-17T06:41:21;3.20;;;1.52;;
75012;SDS011;63567;49.956;20.130;2024-03-17T06:43:46;6.13;;;1.60;;
75012;SDS011;63567;49.956;20.130;2024-03-17T06:46:12;5.20;;;1.55;;
75012;SDS011;63567;49.956;20.130;2024-03-17T06:48:37;4.87;;;1.70;;
75012;SDS011;63567;49.956;20.130;2024-03-17T06:51:02;5.27;;;1.47;;
75012;SDS011;63567;49.956;20.130;2024-03-17T06:53:28;3.50;;;1.30;;
75012;SDS011;63567;49.956;20.130;2024-03-17T06:55:57;6.75;;;1.70;;
75012;SDS011;63567;49.956;20.130;2024-03-17T06:58:24;6.10;;;1.60;;
75012;SDS011;63567;49.956;20.130;2024-03-17T07:00:55;4.63;;;1.80;;
75012;SDS011;63567;49.956;20.130;2024-03-17T07:03:28;5.25;;;1.80;;
75012;SDS011;63567;49.956;20.130;2024-03-17T07:05:58;6.55;;;1.90;;
75012;SDS011;63567;49.956;20.130;2024-03-17T07:08:26;5.18;;;1.80;;
75012;SDS011;63567;49.956;20.130;2024-03-17T07:11:02;5.45;;;1.92;;
75012;SDS011;63567;49.956;20.130;2024-03-17T07:13:30;4.35;;;1.75;;
75012;SDS011;63567;49.956;20.130;2024-03-17T07:15:56;4.85;;;2.05;;
75012;SDS011;63567;49.956;20.130;2024-03-17T07:18:22;4.13;;;1.47;;
75012;SDS011;63567;49.956;20.130;2024-03-17T07:20:47;5.80;;;1.80;;
75012;SDS011;63567;49.956;20.130;2024-03-17T07:23:15;6.35;;;2.17;;
75012;SDS011;63567;49.956;20.130;2024-03-17T07:25:41;5.32;;;2.15;;
75012;SDS011;63567;49.956;20.130;2024-03-17T07:28:07;6.55;;;3.38;;
75012;SDS011;63567;49.956;20.130;2024-03-17T07:30:33;6.18;;;2.53;;
75012;SDS011;63567;49.956;20.130;2024-03-17T07:32:58;6.30;;;2.87;;
75012;SDS011;63567;49.956;20.130;2024-03-17T07:35:24;6.30;;;2.80;;
75012;SDS011;63567;49.956;20.130;2024-03-17T07:37:49;5.60;;;2.80;;
75012;SDS011;63567;49.956;20.130;2024-03-17T07:40:14;5.53;;;3.10;;
75012;SDS011;63567;49.956;20.130;2024-03-17T07:42:40;6.43;;;3.50;;
75012;SDS011;63567;49.956;20.130;2024-03-17T07:45:07;6.65;;;3.17;;
75012;SDS011;63567;49.956;20.130;2024-03-17T07:47:32;7.13;;;3.33;;
75012;SDS011;63567;49.956;20.130;2024-03-17T07:50:03;6.10;;;2.78;;
75012;SDS011;63567;49.956;20.130;2024-03-17T07:54:55;5.27;;;2.90;;
75012;SDS011;63567;49.956;20.130;2024-03-17T07:57:21;5.90;;;2.42;;
75012;SDS011;63567;49.956;20.130;2024-03-17T07:59:49;4.83;;;2.70;;
75012;SDS011;63567;49.956;20.130;2024-03-17T08:02:14;5.15;;;3.15;;
75012;SDS011;63567;49.956;20.130;2024-03-17T08:04:40;6.27;;;3.33;;
75012;SDS011;63567;49.956;20.130;2024-03-17T08:07:05;5.53;;;2.77;;
75012;SDS011;63567;49.956;20.130;2024-03-17T08:09:30;5.13;;;3.30;;
75012;SDS011;63567;49.956;20.130;2024-03-17T08:11:55;6.27;;;3.00;;
75012;SDS011;63567;49.956;20.130;2024-03-17T08:14:21;7.07;;;3.27;;
75012;SDS011;63567;49.956;20.130;2024-03-17T08:16:46;6.40;;;3.83;;
75012;SDS011;63567;49.956;20.130;2024-03-17T08:19:11;7.70;;;4.53;;
75012;SDS011;63567;49.956;20.130;2024-03-17T08:21:36;7.60;;;3.53;;
75012;SDS011;63567;49.956;20.130;2024-03-17T08:24:02;5.63;;;3.50;;
75012;SDS011;63567;49.956;20.130;2024-03-17T08:26:28;6.88;;;3.40;;
75012;SDS011;63567;49.956;20.130;2024-03-17T08:28:53;7.00;;;3.50;;
75012;SDS011;63567;49.956;20.130;2024-03-17T08:31:18;4.87;;;2.33;;
75012;SDS011;63567;49.956;20.130;2024-03-17T08:33:43;4.70;;;2.90;;
75012;SDS011;63567;49.956;20.130;2024-03-17T08:36:09;6.03;;;3.60;;
75012;SDS011;63567;49.956;20.130;2024-03-17T08:38:34;5.70;;;3.70;;
75012;SDS011;63567;49.956;20.130;2024-03-17T08:43:33;4.85;;;3.30;;
75012;SDS011;63567;49.956;20.130;2024-03-17T08:46:00;5.10;;;3.58;;
75012;SDS011;63567;49.956;20.130;2024-03-17T08:48:32;5.30;;;3.10;;
75012;SDS011;63567;49.956;20.130;2024-03-17T08:50:59;5.47;;;4.03;;
75012;SDS011;63567;49.956;20.130;2024-03-17T08:53:25;5.22;;;3.22;;
75012;SDS011;63567;49.956;20.130;2024-03-17T08:55:51;4.63;;;3.13;;
75012;SDS011;63567;49.956;20.130;2024-03-17T08:58:17;4.68;;;3.10;;
75012;SDS011;63567;49.956;20.130;2024-03-17T09:00:42;6.03;;;3.22;;
75012;SDS011;63567;49.956;20.130;2024-03-17T09:03:08;4.63;;;2.65;;
75012;SDS011;63567;49.956;20.130;2024-03-17T09:05:40;5.43;;;3.13;;
75012;SDS011;63567;49.956;20.130;2024-03-17T09:08:09;4.35;;;2.50;;
75012;SDS011;63567;49.956;20.130;2024-03-17T09:10:45;3.75;;;2.17;;
75012;SDS011;63567;49.956;20.130;2024-03-17T09:13:15;4.93;;;3.13;;
75012;SDS011;63567;49.956;20.130;2024-03-17T09:15:54;4.97;;;3.20;;
75012;SDS011;63567;49.956;20.130;2024-03-17T09:18:25;5.57;;;2.90;;
75012;SDS011;63567;49.956;20.130;2024-03-17T09:21:02;5.32;;;2.60;;
75012;SDS011;63567;49.956;20.130;2024-03-17T09:23:35;3.67;;;2.40;;
75012;SDS011;63567;49.956;20.130;2024-03-17T09:28:27;3.83;;;2.50;;
75012;SDS011;63567;49.956;20.130;2024-03-17T09:30:53;4.65;;;2.75;;
75012;SDS011;63567;49.956;20.130;2024-03-17T09:33:20;4.20;;;2.97;;
75012;SDS011;63567;49.956;20.130;2024-03-17T09:35:55;5.50;;;2.47;;
75012;SDS011;63567;49.956;20.130;2024-03-17T09:38:22;4.53;;;2.78;;
75012;SDS011;63567;49.956;20.130;2024-03-17T09:40:48;3.92;;;2.30;;
75012;SDS011;63567;49.956;20.130;2024-03-17T09:43:16;4.38;;;2.45;;
75012;SDS011;63567;49.956;20.130;2024-03-17T09:45:41;5.70;;;2.93;;
75012;SDS011;63567;49.956;20.130;2024-03-17T09:48:06;3.63;;;2.20;;
75012;SDS011;63567;49.956;20.130;2024-03-17T09:50:36;4.03;;;2.47;;
75012;SDS011;63567;49.956;20.130;2024-03-17T09:53:03;4.88;;;2.78;;
75012;SDS011;63567;49.956;20.130;2024-03-17T09:55:30;4.53;;;2.28;;
75012;SDS011;63567;49.956;20.130;2024-03-17T09:57:55;5.87;;;2.40;;
75012;SDS011;63567;49.956;20.130;2024-03-17T10:00:20;4.20;;;2.77;;
75012;SDS011;63567;49.956;20.130;2024-03-17T10:02:46;4.50;;;2.30;;
75012;SDS011;63567;49.956;20.130;2024-03-17T10:05:19;5.75;;;2.50;;
75012;SDS011;63567;49.956;20.130;2024-03-17T10:07:48;4.07;;;2.40;;
75012;SDS011;63567;49.956;20.130;2024-03-17T10:10:15;4.75;;;2.38;;
75012;SDS011;63567;49.956;20.130;2024-03-17T10:12:43;5.65;;;2.90;;
75012;SDS011;63567;49.956;20.130;2024-03-17T10:15:13;3.58;;;2.33;;
75012;SDS011;63567;49.956;20.130;2024-03-17T10:17:39;3.55;;;2.05;;
75012;SDS011;63567;49.956;20.130;2024-03-17T10:20:17;4.83;;;2.17;;
75012;SDS011;63567;49.956;20.130;2024-03-17T10:23:00;5.32;;;2.20;;
75012;SDS011;63567;49.956;20.130;2024-03-17T10:25:26;3.42;;;1.85;;
75012;SDS011;63567;49.956;20.130;2024-03-17T10:27:52;3.80;;;2.28;;
75012;SDS011;63567;49.956;20.130;2024-03-17T10:30:19;5.10;;;2.70;;
75012;SDS011;63567;49.956;20.130;2024-03-17T10:32:46;4.28;;;2.25;;
75012;SDS011;63567;49.956;20.130;2024-03-17T10:35:36;4.25;;;2.63;;
75012;SDS011;63567;49.956;20.130;2024-03-17T10:38:04;4.53;;;2.15;;
75012;SDS011;63567;49.956;20.130;2024-03-17T10:40:31;4.32;;;2.90;;
75012;SDS011;63567;49.956;20.130;2024-03-17T10:42:59;4.00;;;1.95;;
75012;SDS011;63567;49.956;20.130;2024-03-17T10:45:25;4.13;;;2.30;;
75012;SDS011;63567;49.956;20.130;2024-03-17T10:47:52;3.70;;;2.20;;
75012;SDS011;63567;49.956;20.130;2024-03-17T10:52:50;4.32;;;2.30;;
75012;SDS011;63567;49.956;20.130;2024-03-17T10:55:22;4.18;;;2.92;;
75012;SDS011;63567;49.956;20.130;2024-03-17T10:57:49;3.03;;;2.50;;
75012;SDS011;63567;49.956;20.130;2024-03-17T11:00:20;4.40;;;2.10;;
75012;SDS011;63567;49.956;20.130;2024-03-17T11:02:50;3.67;;;2.30;;
75012;SDS011;63567;49.956;20.130;2024-03-17T11:05:20;3.85;;;2.30;;
75012;SDS011;63567;49.956;20.130;2024-03-17T11:07:48;4.60;;;2.40;;
75012;SDS011;63567;49.956;20.130;2024-03-17T11:10:15;3.40;;;2.50;;
75012;SDS011;63567;49.956;20.130;2024-03-17T11:15:33;3.72;;;2.20;;
75012;SDS011;63567;49.956;20.130;2024-03-17T11:18:41;2.83;;;1.98;;
75012;SDS011;63567;49.956;20.130;2024-03-17T11:20:56;2.85;;;2.10;;
75012;SDS011;63567;49.956;20.130;2024-03-17T11:23:40;4.13;;;1.77;;
75012;SDS011;63567;49.956;20.130;2024-03-17T11:26:06;4.70;;;2.22;;
75012;SDS011;63567;49.956;20.130;2024-03-17T11:28:44;2.70;;;2.00;;
75012;SDS011;63567;49.956;20.130;2024-03-17T11:34:06;3.65;;;1.90;;
75012;SDS011;63567;49.956;20.130;2024-03-17T11:36:51;2.83;;;1.50;;
75012;SDS011;63567;49.956;20.130;2024-03-17T11:39:16;3.27;;;1.67;;
75012;SDS011;63567;49.956;20.130;2024-03-17T11:41:52;3.63;;;1.85;;
75012;SDS011;63567;49.956;20.130;2024-03-17T11:46:59;3.03;;;1.73;;
75012;SDS011;63567;49.956;20.130;2024-03-17T11:49:29;4.40;;;2.20;;
75012;SDS011;63567;49.956;20.130;2024-03-17T11:51:59;2.58;;;1.52;;
75012;SDS011;63567;49.956;20.130;2024-03-17T11:54:26;3.53;;;2.00;;
75012;SDS011;63567;49.956;20.130;2024-03-17T11:56:54;3.90;;;1.95;;
75012;SDS011;63567;49.956;20.130;2024-03-17T11:59:21;4.50;;;1.80;;
75012;SDS011;63567;49.956;20.130;2024-03-17T12:01:47;3.80;;;1.80;;
75012;SDS011;63567;49.956;20.130;2024-03-17T12:04:14;3.25;;;1.95;;
75012;SDS011;63567;49.956;20.130;2024-03-17T12:09:24;3.92;;;1.73;;
75012;SDS011;63567;49.956;20.130;2024-03-17T12:11:58;2.90;;;1.70;;
75012;SDS011;63567;49.956;20.130;2024-03-17T12:14:26;2.60;;;1.67;;
75012;SDS011;63567;49.956;20.130;2024-03-17T12:16:53;3.92;;;1.50;;
75012;SDS011;63567;49.956;20.130;2024-03-17T12:19:20;3.45;;;1.50;;
75012;SDS011;63567;49.956;20.130;2024-03-17T12:21:53;3.28;;;1.52;;
75012;SDS011;63567;49.956;20.130;2024-03-17T12:24:20;3.42;;;1.63;;
75012;SDS011;63567;49.956;20.130;2024-03-17T12:26:48;2.80;;;1.55;;
75012;SDS011;63567;49.956;20.130;2024-03-17T12:29:22;3.15;;;1.40;;
75012;SDS011;63567;49.956;20.130;2024-03-17T12:32:00;3.10;;;1.50;;
75012;SDS011;63567;49.956;20.130;2024-03-17T12:37:01;3.60;;;1.45;;
75012;SDS011;63567;49.956;20.130;2024-03-17T12:39:28;3.45;;;1.70;;
75012;SDS011;63567;49.956;20.130;2024-03-17T12:42:07;2.53;;;1.42;;
75012;SDS011;63567;49.956;20.130;2024-03-17T12:44:35;2.85;;;1.63;;
75012;SDS011;63567;49.956;20.130;2024-03-17T12:47:06;3.08;;;1.40;;
75012;SDS011;63567;49.956;20.130;2024-03-17T12:49:33;2.65;;;1.40;;
75012;SDS011;63567;49.956;20.130;2024-03-17T12:51:59;2.55;;;2.15;;
75012;SDS011;63567;49.956;20.130;2024-03-17T12:54:26;2.53;;;1.42;;
75012;SDS011;63567;49.956;20.130;2024-03-17T12:57:05;3.45;;;1.60;;
75012;SDS011;63567;49.956;20.130;2024-03-17T12:59:50;3.85;;;1.98;;
75012;SDS011;63567;49.956;20.130;2024-03-17T13:02:34;3.13;;;1.52;;
75012;SDS011;63567;49.956;20.130;2024-03-17T13:07:51;3.78;;;1.60;;
75012;SDS011;63567;49.956;20.130;2024-03-17T13:10:19;2.90;;;1.65;;
75012;SDS011;63567;49.956;20.130;2024-03-17T13:12:45;3.40;;;1.35;;
75012;SDS011;63567;49.956;20.130;2024-03-17T13:15:12;3.90;;;1.45;;
75012;SDS011;63567;49.956;20.130;2024-03-17T13:17:44;2.95;;;1.40;;
75012;SDS011;63567;49.956;20.130;2024-03-17T13:20:16;4.38;;;1.42;;
75012;SDS011;63567;49.956;20.130;2024-03-17T13:22:41;2.63;;;1.30;;
75012;SDS011;63567;49.956;20.130;2024-03-17T13:25:09;4.50;;;1.90;;
75012;SDS011;63567;49.956;20.130;2024-03-17T13:27:39;2.88;;;1.50;;
75012;SDS011;63567;49.956;20.130;2024-03-17T13:30:04;2.93;;;1.37;;
75012;SDS011;63567;49.956;20.130;2024-03-17T13:32:31;3.45;;;1.52;;
75012;SDS011;63567;49.956;20.130;2024-03-17T13:34:56;2.80;;;1.20;;
75012;SDS011;63567;49.956;20.130;2024-03-17T13:37:21;3.03;;;1.50;;
75012;SDS011;63567;49.956;20.130;2024-03-17T13:39:46;4.20;;;1.87;;
75012;SDS011;63567;49.956;20.130;2024-03-17T13:42:12;3.90;;;1.70;;
75012;SDS011;63567;49.956;20.130;2024-03-17T13:44:37;3.63;;;1.30;;
75012;SDS011;63567;49.956;20.130;2024-03-17T13:47:03;3.20;;;1.33;;
75012;SDS011;63567;49.956;20.130;2024-03-17T13:49:28;2.70;;;1.40;;
75012;SDS011;63567;49.956;20.130;2024-03-17T13:51:54;2.63;;;1.65;;
75012;SDS011;63567;49.956;20.130;2024-03-17T13:54:19;2.53;;;1.50;;
75012;SDS011;63567;49.956;20.130;2024-03-17T13:56:49;2.35;;;1.30;;
75012;SDS011;63567;49.956;20.130;2024-03-17T13:59:15;2.85;;;1.30;;
75012;SDS011;63567;49.956;20.130;2024-03-17T14:01:41;2.80;;;1.40;;
75012;SDS011;63567;49.956;20.130;2024-03-17T14:04:12;2.75;;;1.40;;
75012;SDS011;63567;49.956;20.130;2024-03-17T14:06:39;2.97;;;1.33;;
75012;SDS011;63567;49.956;20.130;2024-03-17T14:09:05;4.13;;;1.20;;
75012;SDS011;63567;49.956;20.130;2024-03-17T14:11:33;3.78;;;1.20;;
75012;SDS011;63567;49.956;20.130;2024-03-17T14:13:59;3.53;;;1.30;;
75012;SDS011;63567;49.956;20.130;2024-03-17T14:16:24;3.20;;;1.70;;
75012;SDS011;63567;49.956;20.130;2024-03-17T14:18:49;2.57;;;1.20;;
75012;SDS011;63567;49.956;20.130;2024-03-17T14:21:15;2.93;;;1.27;;
75012;SDS011;63567;49.956;20.130;2024-03-17T14:23:40;4.00;;;1.40;;
75012;SDS011;63567;49.956;20.130;2024-03-17T14:26:07;2.70;;;1.33;;
75012;SDS011;63567;49.956;20.130;2024-03-17T14:28:32;3.47;;;1.60;;
75012;SDS011;63567;49.956;20.130;2024-03-17T14:30:57;3.07;;;1.40;;
75012;SDS011;63567;49.956;20.130;2024-03-17T14:33:22;3.80;;;2.27;;
75012;SDS011;63567;49.956;20.130;2024-03-17T14:35:55;3.95;;;1.40;;
75012;SDS011;63567;49.956;20.130;2024-03-17T14:38:22;3.00;;;1.58;;
75012;SDS011;63567;49.956;20.130;2024-03-17T14:40:47;3.15;;;1.40;;
75012;SDS011;63567;49.956;20.130;2024-03-17T14:43:12;3.60;;;1.90;;
75012;SDS011;63567;49.956;20.130;2024-03-17T14:45:37;3.57;;;1.57;;
75012;SDS011;63567;49.956;20.130;2024-03-17T14:48:03;4.00;;;1.38;;
75012;SDS011;63567;49.956;20.130;2024-03-17T14:50:29;3.28;;;1.52;;
75012;SDS011;63567;49.956;20.130;2024-03-17T14:52:54;4.33;;;1.60;;
75012;SDS011;63567;49.956;20.130;2024-03-17T14:55:19;4.00;;;1.77;;
75012;SDS011;63567;49.956;20.130;2024-03-17T14:57:46;3.35;;;1.50;;
75012;SDS011;63567;49.956;20.130;2024-03-17T15:00:11;3.50;;;1.40;;